Airfield :
LOGIN :

Register | Disclaimer

   EN    FR    IT 

 










Legend :    VFR   Marginal VFR   IFR   Intensive IFR   Very Intensive IFR
Visi :
Ceiling :
>= 8 km
>= 3000ft
5 to 8 km
1000 to 3000 ft
1500m to 5 km
500 to 1000 ft
800 to 1500m
200 to 500 ft
< 800m
< 200 ft
Symbols :   Thunderstorms  Fog  Heavy snow  Heavy precipitations  Wind > 20 kt
SIGMETs :     Misc.  Thunderstorms  Icing  Turbulence  Mountain Waves  Volcanic Ashes






- Airport Elevation : 1058 ft
- IATA code : SCN


EDDR - Saarbrücken

CURRENT METAR :
  • 110020Z 18008KT CAVOK 02/M02 Q1018

EXPIRED METARs :
  • 102350Z 17004KT 130V200 CAVOK 02/M02 Q1018
  • 102320Z 17004KT CAVOK 02/M01 Q1019
  • 102250Z 20004KT CAVOK 02/M01 Q1020
  • 102220Z 16003KT 130V210 CAVOK 02/M01 Q1020
  • 102150Z 16004KT CAVOK 02/M01 Q1020

TAF TAF EDDR
Valid from the 11 at 00:00 until the 12 at 00:00 UTC


102300Z 1100/1124 20004KT CAVOK
PROB30
TEMPO 1103/1107 -FZRASN
BECMG 1106/1108 20009KT
TEMPO 1106/1111 RA
TEMPO 1111/1117 4000 RADZ BKN010
PROB40
TEMPO 1111/1115 2000 RASN BKN006
BECMG 1117/1119 3000 BR BKN005
TEMPO 1118/1124 1500 DZ BKN002



MET'MAP, your aeronautical weather chart ! - Copyright ORBIFLY December 2007 - Disclaimer

ORBIFLY MET'MAP TEAM :

Programming & Development : Alexandra Zaïnal
Concept & original design : Baudouin d'Aumeries
Assistance for programming : Marc-Olivier Méhu
Technical & hardware support : Manuel Goepfert

Contact : metmap@orbifly.com




SOURCES & CREDITS :

   NOAA